sensor_id;sensor_type;location;lat;lon;timestamp;temperature;humidity
9875;DHT22;4976;46.786;7.632;2023-07-09T04:02:24;16.70;1.00
9875;DHT22;4976;46.786;7.632;2023-07-09T04:04:51;16.70;1.00
9875;DHT22;4976;46.786;7.632;2023-07-09T04:07:18;16.80;1.00
9875;DHT22;4976;46.786;7.632;2023-07-09T04:09:45;16.70;1.00
9875;DHT22;4976;46.786;7.632;2023-07-09T04:12:11;16.80;1.00
9875;DHT22;4976;46.786;7.632;2023-07-09T04:14:38;16.90;1.00
9875;DHT22;4976;46.786;7.632;2023-07-09T04:17:06;17.00;1.00
9875;DHT22;4976;46.786;7.632;2023-07-09T04:19:34;16.70;1.00
9875;DHT22;4976;46.786;7.632;2023-07-09T04:22:01;16.60;1.00
9875;DHT22;4976;46.786;7.632;2023-07-09T04:24:27;16.90;1.00
9875;DHT22;4976;46.786;7.632;2023-07-09T04:26:54;16.40;1.00
9875;DHT22;4976;46.786;7.632;2023-07-09T04:29:21;16.40;1.00
9875;DHT22;4976;46.786;7.632;2023-07-09T04:31:48;16.40;1.00
9875;DHT22;4976;46.786;7.632;2023-07-09T04:34:15;16.30;1.00
9875;DHT22;4976;46.786;7.632;2023-07-09T04:36:43;16.30;1.00
9875;DHT22;4976;46.786;7.632;2023-07-09T04:39:10;16.50;1.00
9875;DHT22;4976;46.786;7.632;2023-07-09T04:41:37;16.60;1.00
9875;DHT22;4976;46.786;7.632;2023-07-09T04:44:03;16.90;1.00
9875;DHT22;4976;46.786;7.632;2023-07-09T04:46:30;17.10;1.00
9875;DHT22;4976;46.786;7.632;2023-07-09T04:48:57;17.20;1.00
9875;DHT22;4976;46.786;7.632;2023-07-09T04:51:25;17.20;99.90
9875;DHT22;4976;46.786;7.632;2023-07-09T04:53:53;17.40;99.90
9875;DHT22;4976;46.786;7.632;2023-07-09T04:56:20;17.40;99.90
9875;DHT22;4976;46.786;7.632;2023-07-09T04:58:48;17.30;99.90
9875;DHT22;4976;46.786;7.632;2023-07-09T05:01:14;17.30;99.90
9875;DHT22;4976;46.786;7.632;2023-07-09T05:03:41;17.50;99.90
9875;DHT22;4976;46.786;7.632;2023-07-09T05:06:08;17.60;1.00
9875;DHT22;4976;46.786;7.632;2023-07-09T05:08:35;17.70;1.00
9875;DHT22;4976;46.786;7.632;2023-07-09T05:11:03;17.70;1.00
9875;DHT22;4976;46.786;7.632;2023-07-09T05:13:30;17.90;99.90
9875;DHT22;4976;46.786;7.632;2023-07-09T05:15:56;18.30;1.00
9875;DHT22;4976;46.786;7.632;2023-07-09T05:18:23;18.50;99.90
9875;DHT22;4976;46.786;7.632;2023-07-09T05:20:50;18.60;99.90
9875;DHT22;4976;46.786;7.632;2023-07-09T05:23:17;18.60;1.00
9875;DHT22;4976;46.786;7.632;2023-07-09T05:25:44;18.80;99.90
9875;DHT22;4976;46.786;7.632;2023-07-09T05:28:12;18.80;99.90
9875;DHT22;4976;46.786;7.632;2023-07-09T05:30:41;18.80;32.20
9875;DHT22;4976;46.786;7.632;2023-07-09T05:33:07;18.90;99.90
9875;DHT22;4976;46.786;7.632;2023-07-09T05:35:34;19.00;1.00
9875;DHT22;4976;46.786;7.632;2023-07-09T05:38:01;19.00;1.00
9875;DHT22;4976;46.786;7.632;2023-07-09T05:40:28;19.10;18.90
9875;DHT22;4976;46.786;7.632;2023-07-09T05:42:55;19.20;1.00
9875;DHT22;4976;46.786;7.632;2023-07-09T05:45:23;19.40;99.90
9875;DHT22;4976;46.786;7.632;2023-07-09T05:47:50;19.50;1.00
9875;DHT22;4976;46.786;7.632;2023-07-09T05:50:17;19.70;99.90
9875;DHT22;4976;46.786;7.632;2023-07-09T05:52:43;19.70;99.90
9875;DHT22;4976;46.786;7.632;2023-07-09T05:55:11;19.70;4.80
9875;DHT22;4976;46.786;7.632;2023-07-09T05:57:37;19.80;99.90
9875;DHT22;4976;46.786;7.632;2023-07-09T06:00:05;19.90;99.90
9875;DHT22;4976;46.786;7.632;2023-07-09T06:02:35;20.10;99.90
9875;DHT22;4976;46.786;7.632;2023-07-09T06:05:02;20.20;86.90
9875;DHT22;4976;46.786;7.632;2023-07-09T06:07:28;20.30;1.00
9875;DHT22;4976;46.786;7.632;2023-07-09T06:09:55;20.60;1.00
9875;DHT22;4976;46.786;7.632;2023-07-09T06:12:22;20.70;1.00
9875;DHT22;4976;46.786;7.632;2023-07-09T06:14:49;20.90;1.00
9875;DHT22;4976;46.786;7.632;2023-07-09T06:17:17;20.90;1.00
9875;DHT22;4976;46.786;7.632;2023-07-09T06:19:45;20.90;1.00
9875;DHT22;4976;46.786;7.632;2023-07-09T06:22:12;21.00;1.00
9875;DHT22;4976;46.786;7.632;2023-07-09T06:24:39;21.10;1.00
9875;DHT22;4976;46.786;7.632;2023-07-09T06:27:05;21.20;1.00
9875;DHT22;4976;46.786;7.632;2023-07-09T06:29:32;21.20;1.00
9875;DHT22;4976;46.786;7.632;2023-07-09T06:31:59;21.40;1.00
9875;DHT22;4976;46.786;7.632;2023-07-09T06:34:26;21.60;1.00
9875;DHT22;4976;46.786;7.632;2023-07-09T06:36:55;21.70;1.00
9875;DHT22;4976;46.786;7.632;2023-07-09T06:39:22;21.90;1.00
9875;DHT22;4976;46.786;7.632;2023-07-09T06:41:49;22.00;1.00
9875;DHT22;4976;46.786;7.632;2023-07-09T06:44:16;22.20;1.00
9875;DHT22;4976;46.786;7.632;2023-07-09T06:46:43;22.30;1.00
9875;DHT22;4976;46.786;7.632;2023-07-09T06:49:11;22.40;1.00
9875;DHT22;4976;46.786;7.632;2023-07-09T06:51:38;22.60;1.00
9875;DHT22;4976;46.786;7.632;2023-07-09T06:54:06;22.70;1.00
9875;DHT22;4976;46.786;7.632;2023-07-09T06:56:34;22.60;1.00
9875;DHT22;4976;46.786;7.632;2023-07-09T06:59:00;22.70;1.00
9875;DHT22;4976;46.786;7.632;2023-07-09T07:01:27;23.00;1.00
9875;DHT22;4976;46.786;7.632;2023-07-09T07:03:54;23.10;1.00
9875;DHT22;4976;46.786;7.632;2023-07-09T07:06:21;23.10;1.00
9875;DHT22;4976;46.786;7.632;2023-07-09T07:08:47;23.30;1.00
9875;DHT22;4976;46.786;7.632;2023-07-09T07:11:16;23.40;1.00
9875;DHT22;4976;46.786;7.632;2023-07-09T07:13:43;23.40;1.00
9875;DHT22;4976;46.786;7.632;2023-07-09T07:16:11;23.50;1.00
9875;DHT22;4976;46.786;7.632;2023-07-09T07:18:38;23.50;1.00
9875;DHT22;4976;46.786;7.632;2023-07-09T07:21:05;23.50;99.90
9875;DHT22;4976;46.786;7.632;2023-07-09T07:23:32;23.70;99.90
9875;DHT22;4976;46.786;7.632;2023-07-09T07:25:59;24.10;99.90
9875;DHT22;4976;46.786;7.632;2023-07-09T07:28:27;24.30;99.90
9875;DHT22;4976;46.786;7.632;2023-07-09T07:30:57;24.30;99.90
9875;DHT22;4976;46.786;7.632;2023-07-09T07:33:24;24.50;99.90
9875;DHT22;4976;46.786;7.632;2023-07-09T07:35:51;24.40;99.90
9875;DHT22;4976;46.786;7.632;2023-07-09T07:38:17;24.60;99.90
9875;DHT22;4976;46.786;7.632;2023-07-09T07:40:44;24.80;99.90
9875;DHT22;4976;46.786;7.632;2023-07-09T07:43:11;24.90;99.90
9875;DHT22;4976;46.786;7.632;2023-07-09T07:45:41;25.00;99.90
9875;DHT22;4976;46.786;7.632;2023-07-09T07:48:07;25.00;99.90
9875;DHT22;4976;46.786;7.632;2023-07-09T07:50:34;25.20;99.90
9875;DHT22;4976;46.786;7.632;2023-07-09T07:53:01;25.50;99.90
9875;DHT22;4976;46.786;7.632;2023-07-09T07:55:28;25.80;99.90
9875;DHT22;4976;46.786;7.632;2023-07-09T07:57:55;25.80;99.90
9875;DHT22;4976;46.786;7.632;2023-07-09T08:00:22;26.00;99.90
9875;DHT22;4976;46.786;7.632;2023-07-09T08:02:50;26.10;99.90
9875;DHT22;4976;46.786;7.632;2023-07-09T08:05:17;26.30;99.90
9875;DHT22;4976;46.786;7.632;2023-07-09T08:07:44;26.30;99.90
9875;DHT22;4976;46.786;7.632;2023-07-09T08:10:11;26.30;99.90
9875;DHT22;4976;46.786;7.632;2023-07-09T08:12:38;26.20;99.90
9875;DHT22;4976;46.786;7.632;2023-07-09T08:15:06;26.30;99.90
9875;DHT22;4976;46.786;7.632;2023-07-09T08:17:33;26.50;99.90
9875;DHT22;4976;46.786;7.632;2023-07-09T08:20:01;26.70;99.90
9875;DHT22;4976;46.786;7.632;2023-07-09T08:22:28;26.80;99.90
9875;DHT22;4976;46.786;7.632;2023-07-09T08:24:54;26.90;99.90
9875;DHT22;4976;46.786;7.632;2023-07-09T08:27:21;27.20;99.90
9875;DHT22;4976;46.786;7.632;2023-07-09T08:29:48;27.20;99.90
9875;DHT22;4976;46.786;7.632;2023-07-09T08:32:15;27.40;99.90
9875;DHT22;4976;46.786;7.632;2023-07-09T08:34:42;27.30;99.90
9875;DHT22;4976;46.786;7.632;2023-07-09T08:37:10;27.40;99.90
9875;DHT22;4976;46.786;7.632;2023-07-09T08:39:37;27.40;99.90
9875;DHT22;4976;46.786;7.632;2023-07-09T08:42:05;27.50;99.90
9875;DHT22;4976;46.786;7.632;2023-07-09T08:44:38;27.70;99.90
9875;DHT22;4976;46.786;7.632;2023-07-09T08:47:11;27.80;99.90
9875;DHT22;4976;46.786;7.632;2023-07-09T08:49:43;27.70;99.90
9875;DHT22;4976;46.786;7.632;2023-07-09T08:52:14;28.00;99.90
9875;DHT22;4976;46.786;7.632;2023-07-09T08:54:42;28.10;99.90
9875;DHT22;4976;46.786;7.632;2023-07-09T08:57:14;28.30;99.90
9875;DHT22;4976;46.786;7.632;2023-07-09T08:59:43;28.30;99.90
9875;DHT22;4976;46.786;7.632;2023-07-09T09:02:16;28.50;99.90
9875;DHT22;4976;46.786;7.632;2023-07-09T09:04:48;28.60;99.90
9875;DHT22;4976;46.786;7.632;2023-07-09T09:07:18;28.90;99.90
9875;DHT22;4976;46.786;7.632;2023-07-09T09:09:47;28.80;99.90
9875;DHT22;4976;46.786;7.632;2023-07-09T09:12:16;28.90;99.90
9875;DHT22;4976;46.786;7.632;2023-07-09T09:14:46;29.30;99.90
9875;DHT22;4976;46.786;7.632;2023-07-09T09:17:17;29.40;99.90
9875;DHT22;4976;46.786;7.632;2023-07-09T09:19:45;29.60;99.90
9875;DHT22;4976;46.786;7.632;2023-07-09T09:22:12;29.40;99.90
9875;DHT22;4976;46.786;7.632;2023-07-09T09:24:43;29.60;99.90
9875;DHT22;4976;46.786;7.632;2023-07-09T09:27:14;29.60;99.90
9875;DHT22;4976;46.786;7.632;2023-07-09T09:29:41;29.50;99.90
9875;DHT22;4976;46.786;7.632;2023-07-09T09:32:15;29.50;99.90
9875;DHT22;4976;46.786;7.632;2023-07-09T09:34:43;29.60;99.90
9875;DHT22;4976;46.786;7.632;2023-07-09T09:37:10;29.80;99.90
9875;DHT22;4976;46.786;7.632;2023-07-09T09:39:37;30.00;99.90
9875;DHT22;4976;46.786;7.632;2023-07-09T09:42:09;30.30;99.90
9875;DHT22;4976;46.786;7.632;2023-07-09T09:44:42;29.90;99.90
9875;DHT22;4976;46.786;7.632;2023-07-09T09:47:09;30.00;99.90
9875;DHT22;4976;46.786;7.632;2023-07-09T09:49:40;30.10;99.90
9875;DHT22;4976;46.786;7.632;2023-07-09T09:52:10;30.40;99.90
9875;DHT22;4976;46.786;7.632;2023-07-09T09:54:40;30.20;99.90
9875;DHT22;4976;46.786;7.632;2023-07-09T09:57:15;30.40;99.90
9875;DHT22;4976;46.786;7.632;2023-07-09T09:59:42;30.70;99.90
9875;DHT22;4976;46.786;7.632;2023-07-09T10:02:14;31.10;99.90
9875;DHT22;4976;46.786;7.632;2023-07-09T10:04:42;31.00;99.90
9875;DHT22;4976;46.786;7.632;2023-07-09T10:07:11;30.60;99.90
9875;DHT22;4976;46.786;7.632;2023-07-09T10:09:43;30.30;99.90
9875;DHT22;4976;46.786;7.632;2023-07-09T10:12:13;30.60;99.90
9875;DHT22;4976;46.786;7.632;2023-07-09T10:14:44;31.00;99.90
9875;DHT22;4976;46.786;7.632;2023-07-09T10:17:15;31.50;99.90
9875;DHT22;4976;46.786;7.632;2023-07-09T10:19:46;31.60;99.90
9875;DHT22;4976;46.786;7.632;2023-07-09T10:22:16;31.30;99.90
9875;DHT22;4976;46.786;7.632;2023-07-09T10:24:53;31.40;99.90
9875;DHT22;4976;46.786;7.632;2023-07-09T10:27:25;31.50;99.90
9875;DHT22;4976;46.786;7.632;2023-07-09T10:30:00;31.50;99.90
9875;DHT22;4976;46.786;7.632;2023-07-09T10:32:31;31.50;99.90
9875;DHT22;4976;46.786;7.632;2023-07-09T10:35:02;31.70;99.90
9875;DHT22;4976;46.786;7.632;2023-07-09T10:37:36;31.80;99.90
9875;DHT22;4976;46.786;7.632;2023-07-09T10:40:08;31.70;99.90
9875;DHT22;4976;46.786;7.632;2023-07-09T10:42:37;32.00;99.90
9875;DHT22;4976;46.786;7.632;2023-07-09T10:45:09;31.90;99.90
9875;DHT22;4976;46.786;7.632;2023-07-09T10:47:37;32.00;99.90
9875;DHT22;4976;46.786;7.632;2023-07-09T10:50:06;32.20;99.90
9875;DHT22;4976;46.786;7.632;2023-07-09T10:52:36;32.00;99.90
9875;DHT22;4976;46.786;7.632;2023-07-09T10:55:05;31.60;99.90
9875;DHT22;4976;46.786;7.632;2023-07-09T10:57:37;31.40;99.90
9875;DHT22;4976;46.786;7.632;2023-07-09T11:00:10;31.40;99.90
9875;DHT22;4976;46.786;7.632;2023-07-09T11:02:38;31.40;99.90
9875;DHT22;4976;46.786;7.632;2023-07-09T11:05:05;31.20;99.90
9875;DHT22;4976;46.786;7.632;2023-07-09T11:07:35;31.10;99.90
9875;DHT22;4976;46.786;7.632;2023-07-09T11:10:04;31.00;99.90
9875;DHT22;4976;46.786;7.632;2023-07-09T11:12:34;31.20;99.90
9875;DHT22;4976;46.786;7.632;2023-07-09T11:15:03;31.00;99.90
9875;DHT22;4976;46.786;7.632;2023-07-09T11:17:32;31.20;99.90
9875;DHT22;4976;46.786;7.632;2023-07-09T11:20:00;31.40;99.90
9875;DHT22;4976;46.786;7.632;2023-07-09T11:22:35;31.50;99.90
9875;DHT22;4976;46.786;7.632;2023-07-09T11:25:07;31.60;99.90
9875;DHT22;4976;46.786;7.632;2023-07-09T11:27:34;31.60;99.90
9875;DHT22;4976;46.786;7.632;2023-07-09T11:30:18;31.70;99.90
9875;DHT22;4976;46.786;7.632;2023-07-09T11:32:46;31.80;99.90
9875;DHT22;4976;46.786;7.632;2023-07-09T11:35:19;32.00;99.90
9875;DHT22;4976;46.786;7.632;2023-07-09T11:37:46;32.30;99.90
9875;DHT22;4976;46.786;7.632;2023-07-09T11:40:13;32.50;99.90
9875;DHT22;4976;46.786;7.632;2023-07-09T11:42:46;32.80;99.90
9875;DHT22;4976;46.786;7.632;2023-07-09T11:45:14;33.10;99.90
9875;DHT22;4976;46.786;7.632;2023-07-09T11:47:44;33.20;99.90
9875;DHT22;4976;46.786;7.632;2023-07-09T11:50:16;33.10;99.90
9875;DHT22;4976;46.786;7.632;2023-07-09T11:52:48;33.00;99.90
9875;DHT22;4976;46.786;7.632;2023-07-09T11:55:19;32.90;99.90
9875;DHT22;4976;46.786;7.632;2023-07-09T11:57:47;33.10;99.90
9875;DHT22;4976;46.786;7.632;2023-07-09T12:00:17;33.30;99.90
9875;DHT22;4976;46.786;7.632;2023-07-09T12:02:44;33.50;99.90
9875;DHT22;4976;46.786;7.632;2023-07-09T12:05:11;33.30;99.90
9875;DHT22;4976;46.786;7.632;2023-07-09T12:07:40;33.10;99.90
9875;DHT22;4976;46.786;7.632;2023-07-09T12:10:13;32.70;99.90
9875;DHT22;4976;46.786;7.632;2023-07-09T12:12:42;32.50;99.90
9875;DHT22;4976;46.786;7.632;2023-07-09T12:15:11;32.80;99.90
9875;DHT22;4976;46.786;7.632;2023-07-09T12:17:40;32.70;99.90
9875;DHT22;4976;46.786;7.632;2023-07-09T12:20:07;32.80;99.90
9875;DHT22;4976;46.786;7.632;2023-07-09T12:22:34;32.80;99.90
9875;DHT22;4976;46.786;7.632;2023-07-09T12:25:07;32.80;99.90
9875;DHT22;4976;46.786;7.632;2023-07-09T12:27:44;32.70;99.90
9875;DHT22;4976;46.786;7.632;2023-07-09T12:30:11;32.60;99.90
9875;DHT22;4976;46.786;7.632;2023-07-09T12:32:43;32.40;99.90
9875;DHT22;4976;46.786;7.632;2023-07-09T12:35:11;32.60;99.90
9875;DHT22;4976;46.786;7.632;2023-07-09T12:37:38;33.20;99.90
9875;DHT22;4976;46.786;7.632;2023-07-09T12:40:10;33.60;99.90
9875;DHT22;4976;46.786;7.632;2023-07-09T12:42:38;33.70;99.90
9875;DHT22;4976;46.786;7.632;2023-07-09T12:45:07;33.90;99.90
9875;DHT22;4976;46.786;7.632;2023-07-09T12:47:39;33.50;99.90
9875;DHT22;4976;46.786;7.632;2023-07-09T12:50:12;33.20;99.90
9875;DHT22;4976;46.786;7.632;2023-07-09T12:52:44;33.60;99.90
9875;DHT22;4976;46.786;7.632;2023-07-09T12:55:20;33.60;99.90
9875;DHT22;4976;46.786;7.632;2023-07-09T12:57:47;33.70;99.90
9875;DHT22;4976;46.786;7.632;2023-07-09T13:00:14;34.00;99.90
9875;DHT22;4976;46.786;7.632;2023-07-09T13:02:41;34.20;99.90
9875;DHT22;4976;46.786;7.632;2023-07-09T13:05:17;34.40;99.90
9875;DHT22;4976;46.786;7.632;2023-07-09T13:07:46;34.30;99.90
9875;DHT22;4976;46.786;7.632;2023-07-09T13:10:15;34.00;99.90
9875;DHT22;4976;46.786;7.632;2023-07-09T13:12:44;33.80;99.90
9875;DHT22;4976;46.786;7.632;2023-07-09T13:15:24;33.90;99.90
9875;DHT22;4976;46.786;7.632;2023-07-09T13:17:56;33.50;99.90
9875;DHT22;4976;46.786;7.632;2023-07-09T13:20:23;33.70;99.90
9875;DHT22;4976;46.786;7.632;2023-07-09T13:22:50;34.00;99.90
9875;DHT22;4976;46.786;7.632;2023-07-09T13:25:17;34.10;99.90
9875;DHT22;4976;46.786;7.632;2023-07-09T13:27:45;34.20;99.90
9875;DHT22;4976;46.786;7.632;2023-07-09T13:30:12;33.70;99.90
9875;DHT22;4976;46.786;7.632;2023-07-09T13:32:39;33.90;99.90
9875;DHT22;4976;46.786;7.632;2023-07-09T13:35:09;33.80;99.90
9875;DHT22;4976;46.786;7.632;2023-07-09T13:37:39;33.70;99.90
9875;DHT22;4976;46.786;7.632;2023-07-09T13:40:07;33.90;99.90
9875;DHT22;4976;46.786;7.632;2023-07-09T13:42:34;33.70;99.90
9875;DHT22;4976;46.786;7.632;2023-07-09T13:45:02;34.10;99.90
9875;DHT22;4976;46.786;7.632;2023-07-09T13:47:29;34.10;99.90
9875;DHT22;4976;46.786;7.632;2023-07-09T13:49:55;34.20;99.90
9875;DHT22;4976;46.786;7.632;2023-07-09T13:52:23;34.40;99.90
9875;DHT22;4976;46.786;7.632;2023-07-09T13:54:51;34.50;99.90
9875;DHT22;4976;46.786;7.632;2023-07-09T13:57:18;34.40;99.90
9875;DHT22;4976;46.786;7.632;2023-07-09T13:59:46;34.30;99.90
9875;DHT22;4976;46.786;7.632;2023-07-09T14:02:22;34.20;99.90
9875;DHT22;4976;46.786;7.632;2023-07-09T14:04:49;34.40;99.90
9875;DHT22;4976;46.786;7.632;2023-07-09T14:07:27;34.70;99.90
9875;DHT22;4976;46.786;7.632;2023-07-09T14:09:55;34.90;99.90
9875;DHT22;4976;46.786;7.632;2023-07-09T14:12:22;34.90;99.90
9875;DHT22;4976;46.786;7.632;2023-07-09T14:14:49;35.10;99.90
9875;DHT22;4976;46.786;7.632;2023-07-09T14:17:16;35.40;99.90
9875;DHT22;4976;46.786;7.632;2023-07-09T14:19:44;35.40;99.90
9875;DHT22;4976;46.786;7.632;2023-07-09T14:24:56;36.00;99.90
9875;DHT22;4976;46.786;7.632;2023-07-09T14:27:23;35.80;99.90
9875;DHT22;4976;46.786;7.632;2023-07-09T14:29:50;35.60;99.90
9875;DHT22;4976;46.786;7.632;2023-07-09T14:32:32;35.70;99.90
9875;DHT22;4976;46.786;7.632;2023-07-09T14:35:00;35.40;99.90
9875;DHT22;4976;46.786;7.632;2023-07-09T14:37:27;34.80;99.90
9875;DHT22;4976;46.786;7.632;2023-07-09T14:39:54;34.60;99.90
9875;DHT22;4976;46.786;7.632;2023-07-09T14:42:20;34.40;99.90
9875;DHT22;4976;46.786;7.632;2023-07-09T14:44:48;34.10;99.90
9875;DHT22;4976;46.786;7.632;2023-07-09T14:47:16;34.00;99.90
9875;DHT22;4976;46.786;7.632;2023-07-09T14:49:43;33.70;99.90
9875;DHT22;4976;46.786;7.632;2023-07-09T14:52:13;33.40;99.90
9875;DHT22;4976;46.786;7.632;2023-07-09T14:54:40;33.30;99.90
9875;DHT22;4976;46.786;7.632;2023-07-09T14:57:11;33.10;99.90
9875;DHT22;4976;46.786;7.632;2023-07-09T14:59:42;32.90;99.90
9875;DHT22;4976;46.786;7.632;2023-07-09T15:02:11;32.80;99.90
9875;DHT22;4976;46.786;7.632;2023-07-09T15:04:47;32.60;99.90
9875;DHT22;4976;46.786;7.632;2023-07-09T15:07:16;32.40;99.90
9875;DHT22;4976;46.786;7.632;2023-07-09T15:09:43;32.30;99.90
9875;DHT22;4976;46.786;7.632;2023-07-09T15:12:13;32.30;99.90
9875;DHT22;4976;46.786;7.632;2023-07-09T15:14:41;32.30;99.90
9875;DHT22;4976;46.786;7.632;2023-07-09T15:17:09;32.30;99.90
9875;DHT22;4976;46.786;7.632;2023-07-09T15:19:36;32.20;99.90
9875;DHT22;4976;46.786;7.632;2023-07-09T15:22:03;32.20;99.90
9875;DHT22;4976;46.786;7.632;2023-07-09T15:24:32;32.30;99.90
9875;DHT22;4976;46.786;7.632;2023-07-09T15:27:00;32.30;99.90
9875;DHT22;4976;46.786;7.632;2023-07-09T15:29:30;32.00;99.90
9875;DHT22;4976;46.786;7.632;2023-07-09T15:31:57;32.20;99.90
9875;DHT22;4976;46.786;7.632;2023-07-09T15:34:24;32.50;99.90
9875;DHT22;4976;46.786;7.632;2023-07-09T15:36:51;33.00;99.90
9875;DHT22;4976;46.786;7.632;2023-07-09T15:39:19;33.60;99.90
9875;DHT22;4976;46.786;7.632;2023-07-09T15:41:47;34.10;99.90
9875;DHT22;4976;46.786;7.632;2023-07-09T15:44:16;34.20;99.90
9875;DHT22;4976;46.786;7.632;2023-07-09T15:46:45;34.20;99.90
9875;DHT22;4976;46.786;7.632;2023-07-09T15:49:14;34.30;99.90
9875;DHT22;4976;46.786;7.632;2023-07-09T15:51:41;34.30;99.90
9875;DHT22;4976;46.786;7.632;2023-07-09T15:54:10;34.20;99.90
9875;DHT22;4976;46.786;7.632;2023-07-09T15:56:40;34.20;99.90
9875;DHT22;4976;46.786;7.632;2023-07-09T15:59:08;34.00;99.90
9875;DHT22;4976;46.786;7.632;2023-07-09T16:01:39;33.90;99.90
9875;DHT22;4976;46.786;7.632;2023-07-09T16:04:07;33.70;99.90
9875;DHT22;4976;46.786;7.632;2023-07-09T16:06:34;33.30;99.90
9875;DHT22;4976;46.786;7.632;2023-07-09T16:09:03;33.00;99.90
9875;DHT22;4976;46.786;7.632;2023-07-09T16:11:30;33.10;99.90
9875;DHT22;4976;46.786;7.632;2023-07-09T16:13:57;33.00;99.90
9875;DHT22;4976;46.786;7.632;2023-07-09T16:16:25;33.20;99.90
9875;DHT22;4976;46.786;7.632;2023-07-09T16:18:52;33.50;99.90
9875;DHT22;4976;46.786;7.632;2023-07-09T16:21:23;33.50;99.90
9875;DHT22;4976;46.786;7.632;2023-07-09T16:23:50;33.50;99.90
9875;DHT22;4976;46.786;7.632;2023-07-09T16:26:17;33.60;99.90
9875;DHT22;4976;46.786;7.632;2023-07-09T16:28:44;33.40;99.90
9875;DHT22;4976;46.786;7.632;2023-07-09T16:31:11;33.30;99.90
9875;DHT22;4976;46.786;7.632;2023-07-09T16:33:39;33.40;99.90
9875;DHT22;4976;46.786;7.632;2023-07-09T16:36:08;33.30;99.90
9875;DHT22;4976;46.786;7.632;2023-07-09T16:38:37;33.10;99.90
9875;DHT22;4976;46.786;7.632;2023-07-09T16:41:04;32.70;99.90
9875;DHT22;4976;46.786;7.632;2023-07-09T16:43:31;32.50;99.90
9875;DHT22;4976;46.786;7.632;2023-07-09T16:45:58;32.40;99.90
9875;DHT22;4976;46.786;7.632;2023-07-09T16:48:24;32.30;99.90
9875;DHT22;4976;46.786;7.632;2023-07-09T16:50:54;32.20;99.90
9875;DHT22;4976;46.786;7.632;2023-07-09T16:53:21;32.00;99.90
9875;DHT22;4976;46.786;7.632;2023-07-09T16:55:48;31.80;99.90
9875;DHT22;4976;46.786;7.632;2023-07-09T16:58:30;31.50;99.90
9875;DHT22;4976;46.786;7.632;2023-07-09T17:00:58;31.50;99.90
9875;DHT22;4976;46.786;7.632;2023-07-09T17:03:25;31.50;99.90
9875;DHT22;4976;46.786;7.632;2023-07-09T17:05:53;32.00;99.90
9875;DHT22;4976;46.786;7.632;2023-07-09T17:08:20;33.20;99.90
9875;DHT22;4976;46.786;7.632;2023-07-09T17:10:47;34.90;99.90
9875;DHT22;4976;46.786;7.632;2023-07-09T17:13:17;35.90;99.90
9875;DHT22;4976;46.786;7.632;2023-07-09T17:15:45;34.80;99.90
9875;DHT22;4976;46.786;7.632;2023-07-09T17:18:14;33.80;99.90
9875;DHT22;4976;46.786;7.632;2023-07-09T17:20:42;32.80;99.90
9875;DHT22;4976;46.786;7.632;2023-07-09T17:23:10;31.90;99.90
9875;DHT22;4976;46.786;7.632;2023-07-09T17:25:37;31.40;99.90
9875;DHT22;4976;46.786;7.632;2023-07-09T17:28:10;31.00;99.90
9875;DHT22;4976;46.786;7.632;2023-07-09T17:30:38;30.80;99.90
9875;DHT22;4976;46.786;7.632;2023-07-09T17:33:05;30.60;99.90
9875;DHT22;4976;46.786;7.632;2023-07-09T17:35:32;30.40;99.90
9875;DHT22;4976;46.786;7.632;2023-07-09T17:37:59;30.10;99.90
9875;DHT22;4976;46.786;7.632;2023-07-09T17:40:28;30.20;99.90
9875;DHT22;4976;46.786;7.632;2023-07-09T17:42:55;30.50;99.90
9875;DHT22;4976;46.786;7.632;2023-07-09T17:45:22;30.20;99.90
9875;DHT22;4976;46.786;7.632;2023-07-09T17:47:49;30.20;99.90
9875;DHT22;4976;46.786;7.632;2023-07-09T17:50:17;30.10;99.90
9875;DHT22;4976;46.786;7.632;2023-07-09T17:52:44;30.20;99.90
9875;DHT22;4976;46.786;7.632;2023-07-09T17:55:11;30.30;99.90
9875;DHT22;4976;46.786;7.632;2023-07-09T17:57:40;30.10;99.90
9875;DHT22;4976;46.786;7.632;2023-07-09T18:00:13;29.90;99.90
9875;DHT22;4976;46.786;7.632;2023-07-09T18:02:41;29.90;99.90
9875;DHT22;4976;46.786;7.632;2023-07-09T18:05:18;30.20;99.90
9875;DHT22;4976;46.786;7.632;2023-07-09T18:07:55;30.30;99.90
9875;DHT22;4976;46.786;7.632;2023-07-09T18:10:23;30.10;99.90
9875;DHT22;4976;46.786;7.632;2023-07-09T18:12:50;30.10;99.90
9875;DHT22;4976;46.786;7.632;2023-07-09T18:15:20;30.00;99.90
9875;DHT22;4976;46.786;7.632;2023-07-09T18:17:49;30.00;99.90
9875;DHT22;4976;46.786;7.632;2023-07-09T18:20:17;29.50;99.90
9875;DHT22;4976;46.786;7.632;2023-07-09T18:22:45;29.00;99.90
9875;DHT22;4976;46.786;7.632;2023-07-09T18:25:13;28.80;99.90
9875;DHT22;4976;46.786;7.632;2023-07-09T18:27:41;28.70;99.90
9875;DHT22;4976;46.786;7.632;2023-07-09T18:30:13;28.90;99.90
9875;DHT22;4976;46.786;7.632;2023-07-09T18:32:41;29.00;99.90
